Byron, Wyoming
Current Conditions -  °F | °C
As of 2:35 PM on Friday 24 Oct 2014 (Local Time) from KU68 Reporting Station
Overcast Overcast  
Wind Chill: 64°   Ceiling: 11000
Heat Index: 64°   Visibility: 10mi
Dew Point: 34°   Wind: 13mph
Humidity: 32%   Direction: 30°NNE
Pressure: 30.01"   Gusts: NA
Location:  44.8°N, 108.51°W
Report Text: KU68 242035Z AUTO 03011KT 10SM OVC110 18/01 A3001 RMK AO2 PWINO
Loading
Personal Weather Stations






























Interactive Weather Map
Tropical Storm Tracking
New forecast layout! Learn more

10-Day Weather Forecast

Advertisements
Track Severe Weather on mobile